createdAt,value
2019-01-10T00:00:18.250Z,65.30
2019-01-10T00:02:47.034Z,65.40
2019-01-10T00:05:16.098Z,65.30
2019-01-10T00:07:44.535Z,65.60
2019-01-10T00:10:15.833Z,65.30
2019-01-10T00:12:44.418Z,65.20
2019-01-10T00:15:17.875Z,65.50
2019-01-10T00:17:46.435Z,65.20
2019-01-10T00:20:17.758Z,65.70
2019-01-10T00:22:46.435Z,65.80
2019-01-10T00:25:16.796Z,65.40
2019-01-10T00:27:45.407Z,65.30
2019-01-10T00:30:21.195Z,65.30
2019-01-10T00:32:49.655Z,65.30
2019-01-10T00:35:18.354Z,65.50
2019-01-10T00:37:47.057Z,65.60
2019-01-10T00:40:18.335Z,65.40
2019-01-10T00:42:49.730Z,65.40
2019-01-10T00:45:17.864Z,65.50
2019-01-10T00:47:46.681Z,65.50
2019-01-10T00:50:17.397Z,65.30
2019-01-10T00:52:46.686Z,65.30
2019-01-10T00:55:15.378Z,65.10
2019-01-10T00:57:43.841Z,64.90
2019-01-10T01:00:18.333Z,65.10
2019-01-10T01:02:46.778Z,65.40
2019-01-10T01:05:15.955Z,65.20
2019-01-10T01:07:44.675Z,65.20
2019-01-10T01:10:21.533Z,65.50
2019-01-10T01:12:58.018Z,65.70
2019-01-10T01:15:20.471Z,65.40
2019-01-10T01:17:48.923Z,65.70
2019-01-10T01:20:19.408Z,65.40
2019-01-10T01:22:47.930Z,65.30
2019-01-10T01:25:16.552Z,65.40
2019-01-10T01:27:45.035Z,65.20
2019-01-10T01:30:16.639Z,65.10
2019-01-10T01:32:45.406Z,65.40
2019-01-10T01:35:14.878Z,65.50
2019-01-10T01:37:43.511Z,65.70
2019-01-10T01:40:15.112Z,65.70
2019-01-10T01:42:44.012Z,65.40
2019-01-10T01:45:14.944Z,65.50
2019-01-10T01:47:43.326Z,65.60
2019-01-10T01:50:15.247Z,65.70
2019-01-10T01:52:43.741Z,65.40
2019-01-10T01:55:12.253Z,65.70
2019-01-10T01:57:40.679Z,65.50
2019-01-10T02:00:13.434Z,65.40
2019-01-10T02:02:42.140Z,65.30
2019-01-10T02:05:10.709Z,65.60
2019-01-10T02:07:39.426Z,65.80
2019-01-10T02:10:13.421Z,65.70
2019-01-10T02:12:41.834Z,65.30
2019-01-10T02:15:10.466Z,65.20
2019-01-10T02:17:39.103Z,65.40
2019-01-10T02:20:09.749Z,64.90
2019-01-10T02:22:38.666Z,64.80
2019-01-10T02:25:09.849Z,64.90
2019-01-10T02:27:38.589Z,65.00
2019-01-10T02:30:10.310Z,65.10
2019-01-10T02:32:38.944Z,65.50
2019-01-10T02:35:08.552Z,65.50
2019-01-10T02:37:37.191Z,65.30
2019-01-10T02:40:08.127Z,65.00
2019-01-10T02:42:36.847Z,65.10
2019-01-10T02:45:08.370Z,65.10
2019-01-10T02:47:36.761Z,65.20
2019-01-10T02:50:14.085Z,65.40
2019-01-10T02:52:42.722Z,65.50
2019-01-10T02:55:11.589Z,65.50
2019-01-10T02:57:40.609Z,65.50
2019-01-10T03:00:17.999Z,65.10
2019-01-10T03:02:46.817Z,65.30
2019-01-10T03:05:15.444Z,64.80
2019-01-10T03:07:44.060Z,65.10
2019-01-10T03:10:15.951Z,65.00
2019-01-10T03:12:44.340Z,65.20
2019-01-10T03:15:12.871Z,65.30
2019-01-10T03:17:41.543Z,65.00
2019-01-10T03:20:13.234Z,65.00
2019-01-10T03:22:41.629Z,65.10
2019-01-10T03:25:10.188Z,65.30
2019-01-10T03:27:38.883Z,65.10
2019-01-10T03:30:10.606Z,65.30
2019-01-10T03:32:39.067Z,65.10
2019-01-10T03:35:08.986Z,65.30
2019-01-10T03:37:37.442Z,65.40
2019-01-10T03:40:09.522Z,65.10
2019-01-10T03:42:42.427Z,65.20
2019-01-10T03:45:13.382Z,65.10
2019-01-10T03:47:41.797Z,65.20
2019-01-10T03:50:12.215Z,65.20
2019-01-10T03:52:40.927Z,65.30
2019-01-10T03:55:09.467Z,65.70
2019-01-10T03:57:37.871Z,65.50
2019-01-10T04:00:12.204Z,65.80
2019-01-10T04:02:40.836Z,66.00
2019-01-10T04:05:09.213Z,66.10
2019-01-10T04:07:37.642Z,66.30
2019-01-10T04:10:07.796Z,66.20
2019-01-10T04:12:36.177Z,66.10
2019-01-10T04:15:06.058Z,66.40
2019-01-10T04:17:34.880Z,66.60
2019-01-10T04:20:04.339Z,66.60
2019-01-10T04:22:33.669Z,66.60
2019-01-10T04:25:02.156Z,66.30
2019-01-10T04:27:30.773Z,66.50
2019-01-10T04:29:59.191Z,66.50
2019-01-10T04:32:27.629Z,66.50
2019-01-10T04:34:56.244Z,66.70
2019-01-10T04:37:24.910Z,66.70
2019-01-10T04:39:53.291Z,66.70
2019-01-10T04:42:21.908Z,66.80
2019-01-10T04:44:50.390Z,66.70
2019-01-10T04:47:18.770Z,66.70
2019-01-10T04:49:47.154Z,66.80
2019-01-10T04:52:15.805Z,66.60
2019-01-10T04:54:44.203Z,66.80
2019-01-10T04:57:12.614Z,66.50
2019-01-10T04:59:41.281Z,67.00
2019-01-10T05:02:18.326Z,66.90
2019-01-10T05:04:39.780Z,67.20
2019-01-10T05:07:08.260Z,66.90
2019-01-10T05:09:36.650Z,67.20
2019-01-10T05:12:05.278Z,67.50
2019-01-10T05:14:34.011Z,67.30
2019-01-10T05:17:02.633Z,67.30
2019-01-10T05:19:31.267Z,67.80
2019-01-10T05:21:59.966Z,67.50
2019-01-10T05:24:28.416Z,67.80
2019-01-10T05:26:56.806Z,67.40
2019-01-10T05:29:25.206Z,67.60
2019-01-10T05:31:53.602Z,67.60
2019-01-10T05:34:21.989Z,67.50
2019-01-10T05:36:51.125Z,67.40
2019-01-10T05:39:19.533Z,67.20
2019-01-10T05:41:48.164Z,67.30
2019-01-10T05:44:26.122Z,67.20
2019-01-10T05:46:48.737Z,67.10
2019-01-10T05:49:16.847Z,67.10
2019-01-10T05:51:45.274Z,67.20
2019-01-10T05:54:13.682Z,67.40
2019-01-10T05:56:42.064Z,67.40
2019-01-10T05:59:10.541Z,67.20
2019-01-10T06:01:38.977Z,67.20
2019-01-10T06:04:07.418Z,67.10
2019-01-10T06:06:37.418Z,67.10
2019-01-10T06:09:08.871Z,67.20
2019-01-10T06:11:37.483Z,67.00
2019-01-10T06:14:05.978Z,67.10
2019-01-10T06:16:34.360Z,66.80
2019-01-10T06:19:02.757Z,66.80
2019-01-10T06:21:31.427Z,66.80
2019-01-10T06:24:00.147Z,66.80
2019-01-10T06:26:28.913Z,66.80
2019-01-10T06:28:57.631Z,66.80
2019-01-10T06:31:26.032Z,66.70
2019-01-10T06:33:54.647Z,66.60
2019-01-10T06:36:23.215Z,66.00
2019-01-10T06:38:51.629Z,66.30
2019-01-10T06:41:20.020Z,65.70
2019-01-10T06:43:48.463Z,66.20
2019-01-10T06:46:16.865Z,66.30
2019-01-10T06:48:45.502Z,66.50
2019-01-10T06:51:14.169Z,66.50
2019-01-10T06:53:42.577Z,66.40
2019-01-10T06:56:10.976Z,66.60
2019-01-10T06:58:39.403Z,66.80
2019-01-10T07:01:07.810Z,66.80
2019-01-10T07:03:36.533Z,66.80
2019-01-10T07:06:05.098Z,66.60
2019-01-10T07:08:33.487Z,66.50
2019-01-10T07:11:01.890Z,66.80
2019-01-10T07:13:30.563Z,66.90
2019-01-10T07:15:59.217Z,66.90
2019-01-10T07:18:27.849Z,66.70
2019-01-10T07:20:56.289Z,66.90
2019-01-10T07:23:24.934Z,67.00
2019-01-10T07:25:55.172Z,67.10
2019-01-10T07:28:23.773Z,66.90
2019-01-10T07:30:53.399Z,67.00
2019-01-10T07:33:21.803Z,67.20
2019-01-10T07:35:54.929Z,67.10
2019-01-10T07:38:23.559Z,67.30
2019-01-10T07:40:52.182Z,67.30
2019-01-10T07:43:21.761Z,67.40
2019-01-10T07:45:50.412Z,67.30
2019-01-10T07:48:18.808Z,67.60
2019-01-10T07:50:47.213Z,67.30
2019-01-10T07:53:16.140Z,67.40
2019-01-10T07:55:44.553Z,67.40
2019-01-10T07:58:13.001Z,66.90
2019-01-10T08:00:41.685Z,67.40
2019-01-10T08:03:10.089Z,67.20
2019-01-10T08:05:38.493Z,66.90
2019-01-10T08:08:07.497Z,66.90
2019-01-10T08:10:36.651Z,66.90
2019-01-10T08:13:06.265Z,67.30
2019-01-10T08:15:34.678Z,67.20
2019-01-10T08:18:03.197Z,67.00
2019-01-10T08:20:31.667Z,67.00
2019-01-10T08:23:00.069Z,66.90
2019-01-10T08:25:29.335Z,67.00
2019-01-10T08:27:57.949Z,66.70
2019-01-10T08:30:26.695Z,66.80
2019-01-10T08:32:55.417Z,66.80
2019-01-10T08:35:24.081Z,66.70
2019-01-10T08:37:52.718Z,66.80
2019-01-10T08:40:21.104Z,66.60
2019-01-10T08:42:50.046Z,66.50
2019-01-10T08:45:21.951Z,66.60
2019-01-10T08:47:48.552Z,66.50
2019-01-10T08:50:19.623Z,66.10
2019-01-10T08:52:48.042Z,66.10
2019-01-10T08:55:16.742Z,66.00
2019-01-10T08:57:45.171Z,65.90
2019-01-10T09:00:15.878Z,65.80
2019-01-10T09:02:44.756Z,65.40
2019-01-10T09:05:13.482Z,66.10
2019-01-10T09:07:42.332Z,65.60
2019-01-10T09:10:19.380Z,65.40
2019-01-10T09:12:48.114Z,65.00
2019-01-10T09:15:23.345Z,65.40
2019-01-10T09:17:46.974Z,65.10
2019-01-10T09:20:15.502Z,64.70
2019-01-10T09:22:43.973Z,64.50
2019-01-10T09:25:12.476Z,64.50
2019-01-10T09:27:40.892Z,64.10
2019-01-10T09:30:15.465Z,63.50
2019-01-10T09:32:44.442Z,63.80
2019-01-10T09:35:12.988Z,63.80
2019-01-10T09:37:41.460Z,63.90
2019-01-10T09:40:12.511Z,64.20
2019-01-10T09:42:41.266Z,63.50
2019-01-10T09:45:12.296Z,62.80
2019-01-10T09:47:40.743Z,63.30
2019-01-10T09:50:14.872Z,63.70
2019-01-10T09:52:43.579Z,63.40
2019-01-10T09:55:12.472Z,63.80
2019-01-10T09:57:40.879Z,64.00
2019-01-10T10:00:13.546Z,63.90
2019-01-10T10:02:41.992Z,63.90
2019-01-10T10:05:10.604Z,62.90
2019-01-10T10:07:39.226Z,63.10
2019-01-10T10:10:13.934Z,62.60
2019-01-10T10:12:43.258Z,62.50
2019-01-10T10:15:12.633Z,62.10
2019-01-10T10:17:41.284Z,62.10
2019-01-10T10:20:18.288Z,61.90
2019-01-10T10:22:46.916Z,61.30
2019-01-10T10:25:15.630Z,61.00
2019-01-10T10:27:44.281Z,61.60
2019-01-10T10:30:15.646Z,61.90
2019-01-10T10:32:44.043Z,61.10
2019-01-10T10:35:13.103Z,60.90
2019-01-10T10:37:41.500Z,61.50
2019-01-10T10:40:19.905Z,60.40
2019-01-10T10:42:49.182Z,60.30
2019-01-10T10:45:18.693Z,60.50
2019-01-10T10:47:47.675Z,60.80
2019-01-10T10:50:22.088Z,61.00
2019-01-10T10:52:52.105Z,60.60
2019-01-10T10:55:20.701Z,60.60
2019-01-10T10:57:49.314Z,60.60
2019-01-10T11:00:23.149Z,60.80
2019-01-10T11:02:51.695Z,60.60
2019-01-10T11:05:20.393Z,60.40
2019-01-10T11:07:48.946Z,60.90
2019-01-10T11:10:19.326Z,60.80
2019-01-10T11:12:48.545Z,60.40
2019-01-10T11:15:17.214Z,60.90
2019-01-10T11:17:46.092Z,60.50
2019-01-10T11:20:19.029Z,59.50
2019-01-10T11:22:47.877Z,59.40
2019-01-10T11:25:18.532Z,59.70
2019-01-10T11:27:47.098Z,60.10
2019-01-10T11:30:20.016Z,60.60
2019-01-10T11:32:48.475Z,60.00
2019-01-10T11:35:17.437Z,60.20
2019-01-10T11:37:46.208Z,59.30
2019-01-10T11:40:19.458Z,59.00
2019-01-10T11:42:48.330Z,59.00
2019-01-10T11:45:19.815Z,58.50
2019-01-10T11:47:48.457Z,58.90
2019-01-10T11:50:17.086Z,58.60
2019-01-10T11:52:45.819Z,59.10
2019-01-10T11:55:14.586Z,59.40
2019-01-10T11:57:43.449Z,58.60
2019-01-10T12:00:21.246Z,57.80
2019-01-10T12:02:49.629Z,58.20
2019-01-10T12:05:18.323Z,58.40
2019-01-10T12:07:46.760Z,58.00
2019-01-10T12:10:15.431Z,57.20
2019-01-10T12:12:43.872Z,57.50
2019-01-10T12:15:13.289Z,57.70
2019-01-10T12:17:41.672Z,58.60
2019-01-10T12:20:15.787Z,59.40
2019-01-10T12:22:44.596Z,59.00
2019-01-10T12:25:14.835Z,58.90
2019-01-10T12:27:43.379Z,59.10
2019-01-10T12:30:22.843Z,59.40
2019-01-10T12:32:51.231Z,59.00
2019-01-10T12:35:20.116Z,59.20
2019-01-10T12:37:48.773Z,59.60
2019-01-10T12:40:17.877Z,59.80
2019-01-10T12:42:46.516Z,60.10
2019-01-10T12:45:17.022Z,60.30
2019-01-10T12:47:45.496Z,59.80
2019-01-10T12:50:25.233Z,59.70
2019-01-10T12:52:53.675Z,60.10
2019-01-10T12:55:22.102Z,59.20
2019-01-10T12:57:50.629Z,59.20
2019-01-10T13:00:23.957Z,58.50
2019-01-10T13:02:53.963Z,58.40
2019-01-10T13:05:22.788Z,58.10
2019-01-10T13:07:51.562Z,58.10
2019-01-10T13:10:20.337Z,58.40
2019-01-10T13:12:49.271Z,57.90
2019-01-10T13:15:22.939Z,58.30
2019-01-10T13:17:51.333Z,58.30
2019-01-10T13:20:20.077Z,57.90
2019-01-10T13:22:48.553Z,58.00
2019-01-10T13:25:18.483Z,58.80
2019-01-10T13:27:47.256Z,58.70
2019-01-10T13:30:17.690Z,59.40
2019-01-10T13:32:46.369Z,59.10
2019-01-10T13:35:16.063Z,57.70
2019-01-10T13:37:44.765Z,57.40
2019-01-10T13:40:15.764Z,57.90
2019-01-10T13:42:44.827Z,58.10
2019-01-10T13:45:15.279Z,58.00
2019-01-10T13:47:45.553Z,57.70
2019-01-10T13:50:19.994Z,57.10
2019-01-10T13:52:48.613Z,57.40
2019-01-10T13:55:18.763Z,58.10
2019-01-10T13:57:47.277Z,57.40
2019-01-10T14:00:24.727Z,56.80
2019-01-10T14:02:53.340Z,57.50
2019-01-10T14:05:22.448Z,56.30
2019-01-10T14:07:51.020Z,56.90
2019-01-10T14:10:21.030Z,56.80
2019-01-10T14:12:49.669Z,57.20
2019-01-10T14:15:22.012Z,57.20
2019-01-10T14:17:50.757Z,57.40
2019-01-10T14:20:19.515Z,56.70
2019-01-10T14:22:48.280Z,57.70
2019-01-10T14:25:16.780Z,57.20
2019-01-10T14:27:45.232Z,57.60
2019-01-10T14:30:22.040Z,56.70
2019-01-10T14:32:50.449Z,56.70
2019-01-10T14:35:19.714Z,56.70
2019-01-10T14:37:48.864Z,57.40
2019-01-10T14:40:17.486Z,57.40
2019-01-10T14:42:46.130Z,57.00
2019-01-10T14:45:18.641Z,57.90
2019-01-10T14:47:47.447Z,58.00
2019-01-10T14:50:20.944Z,57.40
2019-01-10T14:52:49.389Z,57.30
2019-01-10T14:55:17.929Z,57.00
2019-01-10T14:57:46.724Z,56.90
2019-01-10T15:00:24.890Z,56.90
2019-01-10T15:02:53.586Z,56.70
2019-01-10T15:05:22.119Z,57.00
2019-01-10T15:07:51.717Z,57.10
2019-01-10T15:10:20.285Z,57.20
2019-01-10T15:12:48.941Z,56.90
2019-01-10T15:15:19.861Z,56.30
2019-01-10T15:17:48.405Z,55.60
2019-01-10T15:20:19.791Z,55.60
2019-01-10T15:22:48.480Z,55.50
2019-01-10T15:25:17.125Z,55.30
2019-01-10T15:27:45.513Z,56.10
2019-01-10T15:30:22.085Z,55.90
2019-01-10T15:32:50.567Z,55.90
2019-01-10T15:35:19.322Z,55.10
2019-01-10T15:37:48.063Z,55.50
2019-01-10T15:40:19.385Z,55.20
2019-01-10T15:42:48.050Z,55.50
2019-01-10T15:45:16.705Z,55.50
2019-01-10T15:47:46.087Z,56.00
2019-01-10T15:50:17.457Z,56.20
2019-01-10T15:52:46.122Z,56.80
2019-01-10T15:55:17.095Z,57.40
2019-01-10T15:57:45.773Z,56.60
2019-01-10T16:00:24.513Z,56.60
2019-01-10T16:02:53.190Z,57.30
2019-01-10T16:05:21.888Z,57.20
2019-01-10T16:07:50.389Z,57.20
2019-01-10T16:10:20.021Z,56.80
2019-01-10T16:12:49.694Z,56.90
2019-01-10T16:15:20.645Z,56.90
2019-01-10T16:17:49.218Z,57.60
2019-01-10T16:20:17.928Z,57.80
2019-01-10T16:22:46.484Z,57.30
2019-01-10T16:25:16.729Z,57.70
2019-01-10T16:27:45.220Z,57.70
2019-01-10T16:30:16.537Z,57.10
2019-01-10T16:32:45.217Z,57.00
2019-01-10T16:35:13.940Z,56.90
2019-01-10T16:37:42.386Z,57.00
2019-01-10T16:40:13.260Z,57.10
2019-01-10T16:42:41.943Z,57.40
2019-01-10T16:45:13.749Z,57.40
2019-01-10T16:47:42.397Z,56.90
2019-01-10T16:50:13.592Z,57.10
2019-01-10T16:52:42.385Z,57.50
2019-01-10T16:55:12.405Z,57.40
2019-01-10T16:57:41.394Z,57.40
2019-01-10T17:00:16.199Z,57.20
2019-01-10T17:02:45.443Z,56.90
2019-01-10T17:05:14.160Z,56.40
2019-01-10T17:07:42.581Z,56.30
2019-01-10T17:10:12.070Z,56.20
2019-01-10T17:12:40.693Z,55.70
2019-01-10T17:15:11.670Z,56.00
2019-01-10T17:17:40.078Z,56.30
2019-01-10T17:20:11.578Z,56.80
2019-01-10T17:22:40.029Z,57.10
2019-01-10T17:25:09.070Z,57.50
2019-01-10T17:27:37.729Z,57.60
2019-01-10T17:30:14.925Z,57.40
2019-01-10T17:32:43.311Z,57.40
2019-01-10T17:35:15.014Z,57.40
2019-01-10T17:37:43.865Z,57.40
2019-01-10T17:40:15.661Z,57.30
2019-01-10T17:42:44.493Z,57.30
2019-01-10T17:45:18.655Z,57.00
2019-01-10T17:47:47.061Z,57.40
2019-01-10T17:50:17.600Z,57.60
2019-01-10T17:52:46.739Z,57.90
2019-01-10T17:55:15.206Z,57.50
2019-01-10T17:57:43.614Z,58.10
2019-01-10T18:00:20.433Z,58.00
2019-01-10T18:02:48.914Z,58.20
2019-01-10T18:05:17.961Z,58.10
2019-01-10T18:07:46.678Z,58.50
2019-01-10T18:10:22.043Z,58.70
2019-01-10T18:12:50.753Z,58.60
2019-01-10T18:15:21.470Z,58.60
2019-01-10T18:17:50.878Z,58.10
2019-01-10T18:20:22.696Z,57.80
2019-01-10T18:22:51.452Z,57.70
2019-01-10T18:25:20.205Z,57.90
2019-01-10T18:27:48.657Z,57.70
2019-01-10T18:30:19.601Z,58.30
2019-01-10T18:32:48.515Z,58.20
2019-01-10T18:35:17.751Z,57.70
2019-01-10T18:37:47.664Z,57.80
2019-01-10T18:40:17.605Z,58.10
2019-01-10T18:42:46.368Z,58.20
2019-01-10T18:45:17.312Z,57.90
2019-01-10T18:47:45.797Z,58.10
2019-01-10T18:50:17.174Z,58.20
2019-01-10T18:52:45.946Z,58.10
2019-01-10T18:55:14.392Z,58.40
2019-01-10T18:57:43.317Z,58.50
2019-01-10T19:00:23.387Z,58.90
2019-01-10T19:02:52.177Z,59.00
2019-01-10T19:05:20.678Z,59.10
2019-01-10T19:07:49.078Z,59.10
2019-01-10T19:10:21.978Z,59.50
2019-01-10T19:12:50.540Z,59.40
2019-01-10T19:15:19.713Z,59.20
2019-01-10T19:17:48.240Z,59.40
2019-01-10T19:20:22.456Z,59.60
2019-01-10T19:22:51.337Z,59.90
2019-01-10T19:25:20.408Z,59.60
2019-01-10T19:27:48.840Z,59.70
2019-01-10T19:30:22.743Z,59.90
2019-01-10T19:32:51.540Z,59.90
2019-01-10T19:35:20.261Z,60.00
2019-01-10T19:37:49.099Z,59.90
2019-01-10T19:40:19.925Z,59.90
2019-01-10T19:42:48.398Z,60.10
2019-01-10T19:45:19.069Z,60.40
2019-01-10T19:47:47.763Z,60.40
2019-01-10T19:50:18.939Z,60.60
2019-01-10T19:52:47.905Z,60.50
2019-01-10T19:55:18.242Z,60.70
2019-01-10T19:57:47.216Z,60.70
2019-01-10T20:00:24.630Z,61.00
2019-01-10T20:02:53.114Z,61.30
2019-01-10T20:05:22.812Z,61.50
2019-01-10T20:07:51.509Z,61.60
2019-01-10T20:10:20.059Z,61.50
2019-01-10T20:12:48.789Z,61.60
2019-01-10T20:15:17.513Z,61.60
2019-01-10T20:17:46.334Z,61.30
2019-01-10T20:20:23.996Z,61.40
2019-01-10T20:22:52.748Z,61.40
2019-01-10T20:25:21.259Z,61.60
2019-01-10T20:27:49.700Z,61.80
2019-01-10T20:30:18.891Z,62.00
2019-01-10T20:32:47.512Z,62.10
2019-01-10T20:35:16.313Z,62.50
2019-01-10T20:37:44.752Z,62.30
2019-01-10T20:40:18.248Z,62.40
2019-01-10T20:42:46.797Z,62.80
2019-01-10T20:45:15.609Z,63.20
2019-01-10T20:47:44.319Z,63.40
2019-01-10T20:50:15.038Z,63.50
2019-01-10T20:52:43.501Z,63.70
2019-01-10T20:55:14.142Z,63.60
2019-01-10T20:57:43.045Z,63.50
2019-01-10T21:00:14.954Z,63.90
2019-01-10T21:02:43.893Z,64.20
2019-01-10T21:05:12.399Z,64.60
2019-01-10T21:07:40.865Z,64.60
2019-01-10T21:10:14.976Z,64.90
2019-01-10T21:12:43.551Z,65.00
2019-01-10T21:15:20.382Z,64.80
2019-01-10T21:17:49.838Z,65.00
2019-01-10T21:20:18.538Z,65.30
2019-01-10T21:22:47.292Z,65.60
2019-01-10T21:25:15.913Z,65.60
2019-01-10T21:27:44.547Z,66.30
2019-01-10T21:30:18.414Z,66.20
2019-01-10T21:32:47.702Z,66.00
2019-01-10T21:35:16.246Z,66.00
2019-01-10T21:37:44.647Z,66.10
2019-01-10T21:40:18.291Z,66.20
2019-01-10T21:42:46.824Z,66.10
2019-01-10T21:45:18.188Z,65.90
2019-01-10T21:47:47.005Z,66.10
2019-01-10T21:50:22.002Z,66.10
2019-01-10T21:52:50.484Z,66.10
2019-01-10T21:55:18.963Z,66.00
2019-01-10T21:57:47.437Z,66.10
2019-01-10T22:00:27.889Z,66.10
2019-01-10T22:02:56.780Z,66.20
2019-01-10T22:05:25.706Z,66.20
2019-01-10T22:07:54.297Z,66.40
2019-01-10T22:10:22.684Z,66.40
2019-01-10T22:12:51.313Z,66.30
2019-01-10T22:15:19.869Z,66.30
2019-01-10T22:17:48.260Z,66.00
2019-01-10T22:20:19.825Z,66.10
2019-01-10T22:22:48.538Z,65.90
2019-01-10T22:25:17.035Z,65.70
2019-01-10T22:27:45.691Z,65.70
2019-01-10T22:30:17.364Z,65.70
2019-01-10T22:32:45.917Z,65.50
2019-01-10T22:35:17.029Z,65.40
2019-01-10T22:37:45.526Z,65.40
2019-01-10T22:40:16.586Z,65.40
2019-01-10T22:42:44.991Z,65.50
2019-01-10T22:45:14.588Z,65.50
2019-01-10T22:47:43.181Z,65.30
2019-01-10T22:50:14.748Z,65.00
2019-01-10T22:52:43.245Z,64.90
2019-01-10T22:55:14.988Z,64.90
2019-01-10T22:57:43.850Z,64.70
2019-01-10T23:00:18.635Z,64.60
2019-01-10T23:02:47.301Z,65.10
2019-01-10T23:05:15.749Z,65.20
2019-01-10T23:07:44.192Z,64.90
2019-01-10T23:10:13.066Z,64.70
2019-01-10T23:12:41.533Z,65.20
2019-01-10T23:15:14.729Z,65.30
2019-01-10T23:17:45.011Z,65.20
2019-01-10T23:20:13.498Z,65.10
2019-01-10T23:22:41.925Z,65.10
2019-01-10T23:25:10.584Z,65.10
2019-01-10T23:27:43.885Z,65.10
2019-01-10T23:30:12.710Z,65.00
2019-01-10T23:32:41.121Z,65.00
2019-01-10T23:35:09.747Z,64.70
2019-01-10T23:37:39.203Z,64.90
2019-01-10T23:40:09.633Z,64.60
2019-01-10T23:42:38.184Z,64.30
2019-01-10T23:45:08.259Z,64.40
2019-01-10T23:47:36.666Z,64.30
2019-01-10T23:50:07.074Z,64.30
2019-01-10T23:52:35.885Z,64.30
2019-01-10T23:55:06.091Z,64.40
2019-01-10T23:57:34.598Z,64.60
